METAR Data
IDs: Format: Raw Decoded Include TAF

Data at: 1427 UTC 12 Dec 2018

PAQT 121353Z AUTO 05009KT 6SM BR CLR M25/M27 A2948 RMK SLP985 T12501272 TSNO VIA AUTODIAL
PAQT 121253Z AUTO 04010KT 7SM SCT024 M25/M27 A2949 RMK SLP986 T12501272 TSNO VIA AUTODIAL
PAQT 121251Z AUTO 04010KT 6SM BR SCT024 M25/M27 A2949 RMK TSNO VIA AUTODIAL
PAQT 121153Z AUTO 04008KT 6SM BR OVC020 M26/M28 A2949 RMK SLP987 T12611278 11233 21261 53004 TSNO VIA AUTODIAL
PAQT 121122Z AUTO 04008KT 8SM BKN019 M26/M28 A2949 RMK T12561278 TSNO VIA AUTODIAL
PAQT 121053Z AUTO 03007KT 8SM SCT018 M26/M27 A2949 RMK SLP987 T12561272 TSNO VIA AUTODIAL
PAQT 121044Z AUTO 04009KT 8SM BKN017 M26/M27 A2949 RMK AO2 T12561272
PAQT 120953Z AUTO 05012KT 8SM CLR M24/M27 A2948 RMK AO2 SLP984 T12441267
PAQT 120929Z AUTO 05014KT 6SM HZ SCT021 BKN050 M24/M27 A2948 RMK AO2 T12391267
PAQT 120920Z AUTO 05013KT 6SM HZ BKN021 BKN050 M24/M27 A2948 RMK AO2 T12391267
PAQT 120853Z AUTO 05014KT 6SM BR FEW022 BKN050 M24/M26 A2948 RMK AO2 SLP983 T12391261 412281300 51006
PAQT 120753Z AUTO 05014KT 6SM HZ OVC060 M24/M27 A2947 RMK AO2 SLP981 T12391267
PAQT 120653Z AUTO 05015KT 4SM BR OVC055 M23/M26 A2947 RMK AO2 SLP980 T12331256
PAQT 120553Z AUTO 05016KT 4SM BR OVC046 M23/M26 A2946 RMK AO2 SLP977 60000 T12331256 11228 21239 53002
PAQT 120453Z AUTO 05016KT 4SM BR OVC048 M23/M26 A2945 RMK AO2 SLP975 T12331256
PAQT 120353Z AUTO 05015KT 3SM BR OVC047 M23/M26 A2945 RMK AO2 UPE21 SLP975 P0000 T12331256
PAQT 120328Z AUTO 05015KT 3SM BR OVC046 M23/M26 A2945 RMK AO2 UPE21 P0000 T12331256
PAQT 120253Z AUTO 05014KT 2 1/2SM UP BR OVC046 M23/M26 A2945 RMK AO2 SLP974 P0000 60000 T12331256 55001
PAQT 120153Z AUTO 05016KT 2SM UP OVC048 M23/M26 A2945 RMK AO2 SLP973 P0000 T12331261
PAQT 120108Z AUTO 04016KT 2 1/2SM UP OVC047 M23/M26 A2945 RMK AO2 P0000 T12331261
PAQT 120101Z AUTO 04017KT 3SM UP BR OVC047 M24/M26 A2945 RMK AO2 P0000 T12391261
PAQT 120053Z AUTO 05017KT 2 1/2SM UP BR OVC047 M24/M26 A2945 RMK AO2 SLP974 P0000 T12391261
PAQT 120044Z AUTO 04018KT 2 1/2SM UP OVC047 M23/M26 A2945 RMK AO2 P0000 T12331261
PAQT 112353Z AUTO 05017KT 4SM UP OVC047 M23/M26 A2945 RMK AO2 UPB2255 SLP975 P0000 60000 T12331261 11233 21261 53000
PAQT 112253Z AUTO 04017KT 4SM BR OVC045 M23/M26 A2946 RMK AO2 UPE48 SLP976 P0000 T12331256
PAQT 112153Z AUTO 04014KT 4SM UP OVC045 M23/M26 A2945 RMK AO2 SLP975 P0000 T12331261
PAQT 112053Z AUTO 04012KT 5SM UP OVC043 M24/M27 A2945 RMK AO2 SLP976 P0000 60000 T12391267 53004
PAQT 111953Z AUTO 04014KT 5SM UP BR OVC044 M25/M27 A2945 RMK AO2 UPB28 SLP973 P0000 T12501272
PAQT 111853Z AUTO 05014KT 5SM BR OVC047 M26/M28 A2944 RMK AO2 SLP972 T12561278
PAQT 111753Z AUTO 04013KT 5SM HZ OVC049 M26/M29 A2944 RMK AO2 SLP972 T12611289 11261 21283 53001
PAQT 111653Z AUTO 03013KT 4SM BR OVC050 M27/M29 A2943 RMK AO2 SLP968 T12721294
PAQT 111553Z AUTO 04011KT 6SM BR OVC046 M28/M30 A2944 RMK AO2 SLP971 T12781300
PAQT 111507Z AUTO 04011KT 6SM HZ SCT012 BKN032 OVC043 M28/M31 A2944 RMK AO2 T12781306
PAQT 111453Z AUTO 04011KT 5SM HZ BKN012 BKN028 OVC120 M28/M31 A2944 RMK AO2 SLP970 T12781306 57007
PAQT 111353Z AUTO 04013KT 5SM BR BKN029 M28/M31 A2945 RMK AO2 SLP974 T12831306
PAQT 111330Z AUTO 04013KT 5SM BR BKN029 M28/M31 A2945 RMK AO2 T12831306
PAQT 111253Z AUTO 04014KT 5SM HZ BKN030 M28/M31 A2945 RMK AO2 SLP974 T12831311
PAQT 111246Z AUTO 04014KT 5SM BR BKN030 M28/M31 A2945 RMK AO2 T12831306
PAQT 111208Z AUTO 04013KT 4SM HZ BKN026 M28/M31 A2946 RMK AO2 T12831311
PAQT 111153Z AUTO 04012KT 4SM HZ SCT028 M28/M31 A2946 RMK AO2 SLP978 T12831311 11283 21306 55005
PAQT 111053Z AUTO 03010KT 4SM HZ BKN031 M29/M32 A2946 RMK AO2 SLP977 T12941322
PAQT 111039Z AUTO 03011KT 4SM BR OVC031 M30/M32 A2945 RMK AO2 T13001322
PAQT 111025Z AUTO 03011KT 4SM HZ OVC029 M30/M33 A2946 RMK AO2 T13001328
PAQT 110953Z AUTO 03012KT 4SM HZ OVC030 M30/M33 A2946 RMK AO2 SLP978 T13001328
PAQT 110853Z AUTO 03009KT 4SM HZ OVC036 M30/M33 A2947 RMK AO2 SLP983 T13001328 412391306 56003
PAQT 110753Z AUTO 02008KT 4SM BR OVC037 M31/M33 A2948 RMK AO2 SLP983 T13061328
PAQT 110653Z AUTO 02008KT 4SM BR CLR M31/M33 A2948 RMK AO2 SLP984 T13061328
PAQT 110553Z AUTO 03008KT 4SM BR SCT036 M30/M32 A2948 RMK AO2 SLP986 T13001322 11294 21306 56006
PAQT 110453Z AUTO 04008KT 5SM HZ BKN036 M30/M33 A2949 RMK AO2 SLP988 T13001328
PAQT 110353Z AUTO 03008KT 8SM CLR M31/M33 A2949 RMK AO2 SLP989 T13061328
PAQT 110253Z AUTO 04008KT 10SM CLR M30/M32 A2950 RMK AO2 SLP992 T13001322 56011